M I D A S
Marine Information and Data Acquisition System
Tripno 369 of the Zeeleeuw from 2002-12-13 08:24:36 to 2002-12-13 14:47:19
Back to CruiseResearch ActivitiesStationsMapUnderway DataData graphs

EquipmentUnitsComment
TimeDGPSUTC
LatitudeDGPSDM.mWGS84
LongitudeDGPSDM.mWGS84
TemperatureSBE03/SBE38deg celciusITS90
ConductivitySBE21S/mITS90
SalinitySBE21 Practical Salinity Units
ChlorophylAChelsea fluorimeterg/lCalibrated in Aceton
Missing or incorrect values are displayed as -999
Sea surface data collected by the RV Zeeleeuw from 2002-12-13 08:24:36 to 2002-12-13 14:47:19
Time Latitude Longitude Temperature Conductivity Salinity ChlorophylA
2002-12-13 08:25:39 51°11.106 2°44.607 5.219038 3.157239 32.343099  
2002-12-13 08:26:39 51°11.016 2°44.282 5.280409 3.168294 32.444911  
2002-12-13 08:27:38 51°10.929 2°43.96 5.386795 3.188826 32.619407  
2002-12-13 08:28:39 51°10.839 2°43.628 5.431989 3.203988 32.72089  
2002-12-13 08:29:39 51°10.748 2°43.3 5.44196 3.212727 32.790962  
2002-12-13 08:30:39 51°10.66 2°42.974 5.572502 3.232313 32.917327  
2002-12-13 08:31:39 51°10.57 2°42.651 5.600437 3.247265 33.010495  
2002-12-13 08:32:39 51°10.481 2°42.328 5.663094 3.252214 33.034026  
2002-12-13 08:33:39 51°10.392 2°42.005 5.667559 3.257269 33.062948  
2002-12-13 08:34:39 51°10.302 2°41.682 5.793981 3.26622 33.111062  
2002-12-13 08:35:39 51°10.212 2°41.36 5.788221 3.272011 33.14478  
2002-12-13 08:36:39 51°10.121 2°41.039 5.759318 3.278435 33.179614  
2002-12-13 08:37:39 51°10.031 2°40.717 5.742029 3.278751 33.189091  
2002-12-13 08:38:39 51°9.941 2°40.395 5.727944 3.277487 33.189318  
2002-12-13 08:39:39 51°9.851 2°40.076 5.669115 3.276119 33.194303  
2002-12-13 08:40:37 51°9.765 2°39.767 5.569537 3.268326 33.177184  
2002-12-13 08:41:39 51°9.672 2°39.435 5.189417 3.245687 33.128856  
2002-12-13 08:42:38 51°9.584 2°39.119 5.047437 3.213151 33.050146  
2002-12-13 08:43:39 51°9.494 2°38.79 4.988374 3.197779 33.021216  
2002-12-13 08:44:39 51°9.404 2°38.465 4.948443 3.204307 33.055257  
2002-12-13 08:45:39 51°9.315 2°38.137 4.866473 3.193674 33.1068  
2002-12-13 08:46:38 51°9.225 2°37.815 4.803018 3.1922 33.132537  
2002-12-13 08:47:39 51°9.132 2°37.481 5.063245 3.204625 33.227343  
2002-12-13 08:48:39 51°9.066 2°37.218 5.06826 3.227158 33.304351  
2002-12-13 08:49:39 51°9.069 2°37.164 5.147337 3.232106 33.307886  
2002-12-13 08:50:39 51°9.082 2°37.153 5.191034 3.234528 33.310357  
2002-12-13 08:51:39 51°9.096 2°37.145 5.15442 3.23716 33.303959  
2002-12-13 08:52:39 51°9.11 2°37.139 5.220402 3.236844 33.298624  
2002-12-13 08:53:39 51°9.123 2°37.136 5.097888 3.233685 33.286865  
2002-12-13 08:54:39 51°9.136 2°37.133 5.063245 3.228421 33.269268  
2002-12-13 08:55:39 51°9.149 2°37.133 5.059952 3.225578 33.255883  
2002-12-13 08:56:39 51°9.159 2°37.133 5.077429 3.225367 33.253477  
2002-12-13 08:57:39 51°9.177 2°37.136 5.170252 3.227683 33.245243  
2002-12-13 08:58:39 51°9.201 2°37.145 5.226617 3.232106 33.254123  
2002-12-13 08:59:39 51°9.224 2°37.16 5.338189 3.239581 33.261462  
2002-12-13 09:00:39 51°9.252 2°37.207 5.414913 3.248847 33.265015  
2002-12-13 09:01:39 51°9.228 2°37.297 5.406045 3.259693 33.270186  
2002-12-13 09:02:39 51°9.158 2°37.288 5.083557 3.247268 33.290173  
2002-12-13 09:03:39 51°9.102 2°37.242 5.124414 3.230316 33.277029  
2002-12-13 09:04:39 51°9.1 2°37.236 5.136964 3.236002 33.307223  
2002-12-13 09:05:39 51°9.103 2°37.226 5.143795 3.236844 33.315098  
2002-12-13 09:06:39 51°9.103 2°37.216 5.177635 3.240424 33.316039  
2002-12-13 09:07:39 51°9.108 2°37.212 5.189973 3.239687 33.324105  
2002-12-13 09:08:39 51°9.114 2°37.215 5.154268 3.238634 33.321637  
2002-12-13 09:09:39 51°9.12 2°37.217 5.153762 3.238529 33.319569  
2002-12-13 09:10:39 51°9.122 2°37.213 5.215096 3.239793 33.31577  
2002-12-13 09:11:39 51°9.121 2°37.209 5.170707 3.239793 33.316637  
2002-12-13 09:12:39 51°9.119 2°37.207 5.171819 3.23895 33.306169  
2002-12-13 09:13:39 51°9.113 2°37.205 5.17541 3.239793 33.314037  
2002-12-13 09:14:39 51°9.093 2°37.199 5.210446 3.239477 33.313036  
2002-12-13 09:15:39 51°9.06 2°37.147 5.184714 3.241267 33.332573  
2002-12-13 09:16:39 51°9.051 2°37.084 5.229245 3.244321 33.344833  
2002-12-13 09:17:37 51°9.061 2°37.031 5.229649 3.24769 33.352883  
2002-12-13 09:18:39 51°9.085 2°36.989 5.277733 3.249585 33.356271  
2002-12-13 09:19:39 51°9.116 2°36.969 5.258797 3.252112 33.356463  
2002-12-13 09:20:39 51°9.15 2°36.968 5.287224 3.2479 33.323264  
2002-12-13 09:21:38 51°9.183 2°36.984 5.249907 3.24432 33.310201  
2002-12-13 09:22:39 51°9.211 2°37.017 5.203976 3.24074 33.29453  
2002-12-13 09:23:39 51°9.231 2°37.059 5.219846 3.240108 33.283876  
2002-12-13 09:24:39 51°9.242 2°37.106 5.217572 3.241688 33.286294  
2002-12-13 09:25:39 51°9.254 2°37.178 5.288637 3.240635 33.289871  
2002-12-13 09:26:39 51°9.348 2°37.223 5.355538 3.238529 33.277133  
2002-12-13 09:27:39 51°9.377 2°37.082 5.53294 3.258324 33.258985  
2002-12-13 09:28:37 51°9.305 2°36.863 5.510459 3.266221 33.282286  
2002-12-13 09:29:39 51°9.203 2°36.54 5.452937 3.26559 33.294855  
2002-12-13 09:30:39 51°9.104 2°36.217 5.410983 3.26201 33.313581  
2002-12-13 09:31:39 51°9.007 2°35.892 5.471312 3.26201 33.329919  
2002-12-13 09:32:39 51°8.909 2°35.566 5.4928 3.265801 33.348762  
2002-12-13 09:33:39 51°8.812 2°35.238 5.456763 3.269171 33.374004  
2002-12-13 09:34:39 51°8.716 2°34.912 5.47408 3.272119 33.398769  
2002-12-13 09:35:39 51°8.619 2°34.585 5.503769 3.276542 33.429011  
2002-12-13 09:36:39 51°8.523 2°34.262 5.568733 3.283177 33.47476  
2002-12-13 09:37:37 51°8.43 2°33.946 5.677193 3.289917 33.530265  
2002-12-13 09:38:39 51°8.331 2°33.609 5.724936 3.312663 33.614631  
2002-12-13 09:39:39 51°8.257 2°33.354 5.690838 3.316034 33.666347  
2002-12-13 09:40:39 51°8.207 2°33.183 5.705583 3.313401 33.694469  
2002-12-13 09:41:39 51°8.16 2°33.042 5.782161 3.324037 33.70218  
2002-12-13 09:42:39 51°8.1 2°33.001 5.787871 3.32825 33.712541  
2002-12-13 09:43:39 51°8.062 2°32.99 5.661136 3.328461 33.744184  
2002-12-13 09:44:39 51°8.059 2°32.984 5.613545 3.322564 33.796987  
2002-12-13 09:45:37 51°8.057 2°32.973 5.612742 3.316456 33.75229  
2002-12-13 09:46:39 51°8.055 2°32.962 5.60119 3.319721 33.794357  
2002-12-13 09:47:39 51°8.052 2°32.952 5.603802 3.318141 33.783451  
2002-12-13 09:48:39 51°8.05 2°32.943 5.600989 3.320037 33.801395  
2002-12-13 09:49:39 51°8.048 2°32.934 5.643319 3.319826 33.801618  
2002-12-13 09:50:39 51°8.047 2°32.925 5.603852 3.318352 33.785831  
2002-12-13 09:51:39 51°8.045 2°32.916 5.603802 3.320353 33.805831  
2002-12-13 09:52:39 51°8.043 2°32.906 5.603902 3.320142 33.802584  
2002-12-13 09:53:39 51°8.038 2°32.894 5.605459 3.320879 33.810044  
2002-12-13 09:54:39 51°8.032 2°32.88 5.608674 3.320774 33.807987  
2002-12-13 09:55:39 51°8.024 2°32.864 5.611436 3.32109 33.80982  
2002-12-13 09:56:39 51°8.015 2°32.847 5.697258 3.321301 33.808729  
2002-12-13 09:57:39 51°8.005 2°32.755 5.652504 3.321932 33.81066  
2002-12-13 09:58:39 51°8.097 2°32.718 5.823569 3.321722 33.786612  
2002-12-13 09:59:39 51°8.12 2°32.87 5.799439 3.32846 33.708888  
2002-12-13 10:00:39 51°8.074 2°32.954 5.773446 3.329408 33.726422  
2002-12-13 10:01:39 51°8.063 2°32.996 5.705482 3.325513 33.79994  
2002-12-13 10:02:40 51°8.066 2°32.992 5.601391 3.320985 33.803426  
2002-12-13 10:03:39 51°8.069 2°32.989 5.601893 3.319721 33.799561  
2002-12-13 10:04:39 51°8.072 2°32.989 5.640508 3.319615 33.799239  
2002-12-13 10:05:39 51°8.076 2°32.99 5.600788 3.319405 33.80033  
2002-12-13 10:06:39 51°8.081 2°32.993 5.602998 3.31951 33.799784  
2002-12-13 10:07:39 51°8.084 2°32.997 5.608423 3.320037 33.802262  
2002-12-13 10:08:39 51°8.084 2°33.001 5.610381 3.320774 33.804517  
2002-12-13 10:09:39 51°8.081 2°32.999 5.628811 3.320774 33.802782  
2002-12-13 10:10:38 51°8.073 2°32.992 5.663043 3.321406 33.799511  
2002-12-13 10:11:39 51°8.056 2°32.955 5.606966 3.320669 33.799858  
2002-12-13 10:12:39 51°8.058 2°32.894 5.644423 3.320142 33.801717  
2002-12-13 10:13:39 51°8.086 2°32.845 5.613897 3.320563 33.805608  
2002-12-13 10:14:39 51°8.126 2°32.84 5.812056 3.323827 33.753275  
2002-12-13 10:15:39 51°8.16 2°32.872 5.792829 3.328461 33.723513  
2002-12-13 10:16:39 51°8.174 2°32.924 5.837282 3.328882 33.717922  
2002-12-13 10:17:39 51°8.163 2°32.972 5.782211 3.329198 33.718892  
2002-12-13 10:18:39 51°8.133 2°32.981 5.809452 3.328777 33.739121  
2002-12-13 10:19:39 51°8.109 2°32.938 5.618869 3.325302 33.801894  
2002-12-13 10:20:39 51°8.083 2°32.843 5.758817 3.321511 33.792032  
2002-12-13 10:21:39 51°8.047 2°32.554 5.795683 3.326355 33.754114  
2002-12-13 10:22:39 51°8.126 2°32.261 5.821116 3.330356 33.712129  
2002-12-13 10:23:39 51°8.307 2°32.033 5.880555 3.332252 33.723104  
2002-12-13 10:24:39 51°8.46 2°32.116 5.844438 3.339308 33.775666  
2002-12-13 10:25:39 51°8.48 2°32.264 5.841386 3.340888 33.793398  
2002-12-13 10:26:39 51°8.504 2°32.35 5.878854 3.338466 33.778253  
2002-12-13 10:27:37 51°8.525 2°32.38 5.843437 3.338571 33.775133  
2002-12-13 10:28:39 51°8.546 2°32.391 5.884655 3.337939 33.76976  
2002-12-13 10:29:39 51°8.564 2°32.397 5.842086 3.33815 33.762664  
2002-12-13 10:30:39 51°8.582 2°32.4 5.840485 3.337307 33.762666  
2002-12-13 10:31:39 51°8.597 2°32.398 5.842637 3.336991 33.761699  
2002-12-13 10:32:39 51°8.611 2°32.394 5.844788 3.338044 33.769222  
2002-12-13 10:33:39 51°8.625 2°32.387 5.851493 3.33836 33.769328  
2002-12-13 10:34:39 51°8.637 2°32.378 5.851693 3.338887 33.770078  
2002-12-13 10:35:39 51°8.649 2°32.367 5.845939 3.338887 33.770938  
2002-12-13 10:36:39 51°8.681 2°32.358 5.849492 3.33815 33.770404  
2002-12-13 10:37:39 51°8.701 2°32.254 6.175667 3.350155 33.78904  
2002-12-13 10:38:38 51°8.638 2°32.208 6.226368 3.37164 33.80492  
2002-12-13 10:39:39 51°8.561 2°32.22 5.990179 3.377117 33.833486  
2002-12-13 10:40:38 51°8.491 2°32.232 5.856646 3.348997 33.825007  
2002-12-13 10:41:37 51°8.487 2°32.224 5.846089 3.340572 33.78641  
2002-12-13 10:42:39 51°8.486 2°32.213 5.841886 3.339203 33.782227  
2002-12-13 10:43:39 51°8.481 2°32.203 5.842086 3.339097 33.775022  
2002-12-13 10:44:39 51°8.475 2°32.2 5.836982 3.337623 33.769654  
2002-12-13 10:45:39 51°8.472 2°32.201 5.875054 3.337412 33.771591  
2002-12-13 10:46:39 51°8.469 2°32.205 5.837933 3.337202 33.770087  
2002-12-13 10:47:39 51°8.469 2°32.216 5.837583 3.337412 33.770731  
2002-12-13 10:48:39 51°8.469 2°32.232 5.855245 3.337096 33.765462  
2002-12-13 10:49:39 51°8.469 2°32.247 5.86495 3.339519 33.765132  
2002-12-13 10:50:39 51°8.473 2°32.265 5.869202 3.339308 33.767067  
2002-12-13 10:51:39 51°8.478 2°32.284 5.841286 3.338676 33.765994  
2002-12-13 10:52:38 51°8.471 2°32.331 5.83463 3.336886 33.763098  
2002-12-13 10:53:39 51°8.427 2°32.352 5.876404 3.334885 33.744931  
2002-12-13 10:54:39 51°8.382 2°32.293 5.83403 3.334147 33.736654  
2002-12-13 10:55:39 51°8.368 2°32.209 5.83503 3.332884 33.724183  
2002-12-13 10:56:39 51°8.376 2°32.129 5.83443 3.333726 33.735362  
2002-12-13 10:57:39 51°8.403 2°32.067 5.880155 3.335517 33.752026  
2002-12-13 10:58:39 51°8.439 2°32.032 5.882805 3.338571 33.780296  
2002-12-13 10:59:39 51°8.478 2°32.023 5.844038 3.339414 33.788895  
2002-12-13 11:00:39 51°8.509 2°32.036 5.856246 3.33994 33.791365  
2002-12-13 11:01:39 51°8.535 2°32.061 5.884905 3.343626 33.807778  
2002-12-13 11:02:37 51°8.555 2°32.091 5.911802 3.344363 33.798844  
2002-12-13 11:03:37 51°8.57 2°32.122 5.849892 3.340572 33.783829  
2002-12-13 11:04:39 51°8.575 2°32.151 5.851693 3.338255 33.770726  
2002-12-13 11:05:39 51°8.573 2°32.175 5.93634 3.341204 33.784039  
2002-12-13 11:06:39 51°8.564 2°32.199 5.912702 3.344363 33.797125  
2002-12-13 11:07:37 51°8.56 2°32.227 5.947781 3.343521 33.788535  
2002-12-13 11:08:37 51°8.566 2°32.26 5.868001 3.340467 33.778347  
2002-12-13 11:09:37 51°8.582 2°32.296 5.84669 3.339413 33.775988  
2002-12-13 11:10:39 51°8.601 2°32.336 5.879304 3.336465 33.755788  
2002-12-13 11:11:38 51°8.619 2°32.377 5.837633 3.335517 33.750306  
2002-12-13 11:12:39 51°8.638 2°32.421 5.877754 3.335201 33.745899  
2002-12-13 11:13:39 51°8.66 2°32.463 5.878204 3.335833 33.751273  
2002-12-13 11:14:39 51°8.683 2°32.506 5.838584 3.335622 33.749768  
2002-12-13 11:15:39 51°8.708 2°32.547 5.882655 3.336149 33.75396  
2002-12-13 11:16:39 51°8.735 2°32.588 5.842937 3.336465 33.756648  
2002-12-13 11:17:39 51°8.763 2°32.627 5.883905 3.336359 33.752885  
2002-12-13 11:18:39 51°8.792 2°32.668 5.84634 3.336464 33.752348  
2002-12-13 11:19:37 51°8.821 2°32.706 5.851293 3.336675 33.752993  
2002-12-13 11:20:39 51°8.852 2°32.749 5.897505 3.33815 33.760944  
2002-12-13 11:21:39 51°8.883 2°32.793 5.851493 3.337623 33.757613  
2002-12-13 11:22:39 51°8.916 2°32.835 5.848591 3.336886 33.751918  
2002-12-13 11:23:39 51°8.949 2°32.876 5.930194 3.33678 33.753315  
2002-12-13 11:24:39 51°8.982 2°32.919 5.841836 3.336359 33.749446  
2002-12-13 11:25:39 51°9.015 2°32.962 5.838834 3.335306 33.743642  
2002-12-13 11:26:39 51°9.051 2°33.001 5.833029 3.334674 33.739987  
2002-12-13 11:27:39 51°9.085 2°33.041 5.831477 3.333832 33.733966  
2002-12-13 11:28:39 51°9.115 2°33.08 5.829075 3.333516 33.732997  
2002-12-13 11:29:39 51°9.144 2°33.116 5.869902 3.332357 33.722568  
2002-12-13 11:30:39 51°9.174 2°33.15 5.822768 3.332568 33.724074  
2002-12-13 11:31:39 51°9.201 2°33.176 5.820115 3.331515 33.717404  
2002-12-13 11:32:39 51°9.221 2°33.197 5.823819 3.330777 33.712563  
2002-12-13 11:33:39 51°9.233 2°33.231 5.82397 3.331936 33.720416  
2002-12-13 11:34:39 51°9.228 2°33.266 5.906104 3.33183 33.718374  
2002-12-13 11:35:39 51°9.207 2°33.275 5.858347 3.331409 33.715362  
2002-12-13 11:36:39 51°9.191 2°33.252 5.854345 3.329513 33.703526  
2002-12-13 11:37:39 51°9.182 2°33.221 5.898755 3.329408 33.697188  
2002-12-13 11:38:39 51°9.176 2°33.19 5.816011 3.329619 33.703849  
2002-12-13 11:39:39 51°9.172 2°33.163 5.860198 3.330251 33.710087  
2002-12-13 11:40:37 51°9.166 2°33.134 5.861649 3.330461 33.710734  
2002-12-13 11:41:39 51°9.154 2°33.09 5.830526 3.330777 33.709126  
2002-12-13 11:42:39 51°9.139 2°33.034 5.828124 3.331409 33.708489  
2002-12-13 11:43:39 51°9.127 2°32.965 5.830376 3.331409 33.713644  
2002-12-13 11:44:39 51°9.122 2°32.887 5.83438 3.332884 33.725902  
2002-12-13 11:45:39 51°9.116 2°32.81 5.853944 3.334463 33.735903  
2002-12-13 11:46:39 51°9.106 2°32.754 5.904054 3.33678 33.746439  
2002-12-13 11:47:39 51°9.098 2°32.713 5.867251 3.337412 33.749233  
2002-12-13 11:48:39 51°9.096 2°32.685 5.873253 3.34015 33.76019  
2002-12-13 11:49:39 51°9.087 2°32.658 5.898355 3.340572 33.765775  
2002-12-13 11:50:39 51°9.059 2°32.653 5.894656 3.34173 33.764163  
2002-12-13 11:51:39 51°9.043 2°32.686 5.883405 3.34152 33.764378  
2002-12-13 11:52:39 51°9.045 2°32.714 5.890156 3.34152 33.768673  
2002-12-13 11:53:39 51°9.054 2°32.735 5.875454 3.341204 33.767707  
2002-12-13 11:54:39 51°9.065 2°32.751 5.91815 3.340677 33.765238  
2002-12-13 11:55:39 51°9.076 2°32.765 5.873253 3.339519 33.759976  
2002-12-13 11:56:39 51°9.088 2°32.774 5.8639 3.338887 33.756324  
2002-12-13 11:57:37 51°9.099 2°32.778 5.860148 3.338044 33.752886  
2002-12-13 11:58:39 51°9.11 2°32.777 5.86575 3.337518 33.748696  
2002-12-13 11:59:39 51°9.121 2°32.773 5.868702 3.338571 33.753639  
2002-12-13 12:00:39 51°9.132 2°32.766 5.905404 3.338044 33.751167  
2002-12-13 12:01:39 51°9.143 2°32.759 5.866451 3.337834 33.751382  
2002-12-13 12:02:39 51°9.154 2°32.749 5.905604 3.338255 33.749235  
2002-12-13 12:03:39 51°9.164 2°32.737 5.901255 3.337833 33.749663  
2002-12-13 12:04:39 51°9.173 2°32.718 5.863299 3.337728 33.7502  
2002-12-13 12:05:39 51°9.181 2°32.695 5.873003 3.337939 33.749986  
2002-12-13 12:06:39 51°9.193 2°32.678 5.870652 3.339624 33.756861  
2002-12-13 12:07:39 51°9.212 2°32.666 5.875104 3.338781 33.754283  
2002-12-13 12:08:39 51°9.258 2°32.624 5.912452 3.338676 33.751383  
2002-12-13 12:09:39 51°9.248 2°32.505 5.889256 3.338571 33.750202  
2002-12-13 12:10:39 51°9.178 2°32.502 5.928345 3.342467 33.762983  
2002-12-13 12:11:39 51°9.124 2°32.605 5.902855 3.346575 33.777251  
2002-12-13 12:12:39 51°9.114 2°32.7 5.876254 3.34173 33.764163  
2002-12-13 12:13:39 51°9.122 2°32.723 5.978096 3.33836 33.752994  
2002-12-13 12:14:39 51°9.125 2°32.725 5.855245 3.337202 33.750307  
2002-12-13 12:15:39 51°9.136 2°32.727 5.859448 3.336675 33.744397  
2002-12-13 12:16:39 51°9.14 2°32.732 5.854095 3.33678 33.743861  
2002-12-13 12:17:39 51°9.144 2°32.734 5.889906 3.335832 33.739239  
2002-12-13 12:18:39 51°9.145 2°32.731 5.891006 3.335517 33.736552  
2002-12-13 12:19:39 51°9.144 2°32.724 5.849492 3.335622 33.738593  
2002-12-13 12:20:39 51°9.141 2°32.716 5.846089 3.335306 33.736766  
2002-12-13 12:21:39 51°9.137 2°32.709 5.849392 3.335306 33.735907  
2002-12-13 12:22:39 51°9.13 2°32.716 5.852544 3.335622 33.737734  
2002-12-13 12:23:39 51°9.111 2°32.736 5.845089 3.335201 33.736443  
2002-12-13 12:24:39 51°9.078 2°32.743 5.835281 3.333726 33.727627  
2002-12-13 12:25:39 51°9.043 2°32.728 5.883355 3.332252 33.717948  
2002-12-13 12:26:38 51°9.013 2°32.701 5.829125 3.332568 33.712045  
2002-12-13 12:27:39 51°8.988 2°32.646 5.814409 3.33004 33.702566  
2002-12-13 12:28:39 51°8.981 2°32.574 5.808902 3.328566 33.697176  
2002-12-13 12:29:39 51°8.993 2°32.505 5.815059 3.328671 33.700938  
2002-12-13 12:30:37 51°9.021 2°32.459 5.826672 3.330461 33.715032  
2002-12-13 12:31:39 51°9.055 2°32.442 5.91865 3.336886 33.74848  
2002-12-13 12:32:39 51°9.087 2°32.471 5.884655 3.340888 33.768459  
2002-12-13 12:33:39 51°9.089 2°32.57 5.851143 3.339729 33.763198  
2002-12-13 12:34:38 51°9.037 2°32.61 5.837232 3.334779 33.735152  
2002-12-13 12:35:40 51°9.034 2°32.589 5.880505 3.333305 33.722898  
2002-12-13 12:36:42 51°9.035 2°32.56 5.927196 3.333621 33.726444  
2002-12-13 12:37:42 51°9.037 2°32.53 5.891156 3.334358 33.733001  
2002-12-13 12:38:41 51°9.026 2°32.484 5.836732 3.333831 33.724513  
2002-12-13 12:39:42 51°8.974 2°32.47 5.862249 3.33162 33.718587  
2002-12-13 12:40:43 51°8.938 2°32.626 5.8646 3.330145 33.707185  
2002-12-13 12:41:41 51°8.989 2°32.907 5.855145 3.327302 33.686417  
2002-12-13 12:42:41 51°9.048 2°33.241 5.76062 3.3233 33.665508  
2002-12-13 12:43:42 51°9.106 2°33.58 5.681708 3.309083 33.592372  
2002-12-13 12:44:41 51°9.156 2°33.911 5.696004 3.303185 33.552592  
2002-12-13 12:45:43 51°9.206 2°34.259 5.631723 3.297498 33.513423  
2002-12-13 12:46:41 51°9.251 2°34.578 5.652856 3.294339 33.486398  
2002-12-13 12:47:43 51°9.306 2°34.92 5.662542 3.294339 33.469234  
2002-12-13 12:48:41 51°9.365 2°35.237 5.76548 3.298446 33.476911  
2002-12-13 12:49:42 51°9.427 2°35.57 5.702875 3.299499 33.491337  
2002-12-13 12:50:42 51°9.498 2°35.894 5.678899 3.2896 33.444128  
2002-12-13 12:51:42 51°9.575 2°36.215 5.496373 3.27749 33.401877  
2002-12-13 12:52:42 51°9.651 2°36.536 5.28051 3.266538 33.37088  
2002-12-13 12:53:42 51°9.727 2°36.856 5.534801 3.250953 33.286335  
2002-12-13 12:54:41 51°9.801 2°37.173 5.663646 3.277805 33.331705  
2002-12-13 12:55:42 51°9.877 2°37.502 5.641311 3.279174 33.322339  
2002-12-13 12:56:42 51°9.953 2°37.825 5.488071 3.266958 33.270067  
2002-12-13 12:57:43 51°10.029 2°38.153 5.501102 3.258323 33.219581  
2002-12-13 12:58:42 51°10.103 2°38.471 5.513025 3.256954 33.200689  
2002-12-13 12:59:42 51°10.178 2°38.792 5.668111 3.260956 33.206577  
2002-12-13 13:00:41 51°10.25 2°39.108 5.803795 3.277593 33.233808  
2002-12-13 13:01:42 51°10.326 2°39.435 5.794531 3.283385 33.234311  
2002-12-13 13:02:43 51°10.404 2°39.728 5.377268 3.285385 33.237251  
2002-12-13 13:03:43 51°10.495 2°39.717 5.322046 3.161029 32.331505  
2002-12-13 13:04:42 51°10.502 2°39.591 5.749747 3.231786 32.865697  
2002-12-13 13:05:43 51°10.465 2°39.449 5.796284 3.280963 33.213064  
2002-12-13 13:06:41 51°10.392 2°39.373 5.875304 3.284648 33.233222  
2002-12-13 13:07:41 51°10.308 2°39.28 5.794431 3.284754 33.233555  
2002-12-13 13:08:42 51°10.244 2°39.175 5.792578 3.285491 33.240977  
2002-12-13 13:09:41 51°10.19 2°39.096 5.79383 3.284859 33.23304  
2002-12-13 13:10:42 51°10.141 2°39.147 5.785016 3.284438 33.233403  
2002-12-13 13:11:42 51°10.18 2°39.22 5.305596 3.27138 33.148701  
2002-12-13 13:12:42 51°10.242 2°39.186 5.290707 3.165978 32.398468  
2002-12-13 13:13:42 51°10.265 2°39.072 5.590992 3.174927 32.454435  
2002-12-13 13:14:41 51°10.264 2°39.017 5.76528 3.261902 33.081169  
2002-12-13 13:15:43 51°10.258 2°38.963 5.788772 3.280857 33.211034  
2002-12-13 13:16:42 51°10.251 2°38.914 5.922298 3.284543 33.234585  
2002-12-13 13:17:41 51°10.245 2°38.867 5.788722 3.28507 33.236251  
2002-12-13 13:18:41 51°10.237 2°38.82 5.786969 3.284648 33.238311  
2002-12-13 13:19:42 51°10.228 2°38.774 5.784866 3.284543 33.238826  
2002-12-13 13:20:41 51°10.219 2°38.731 5.783764 3.284754 33.242038  
2002-12-13 13:21:44 51°10.204 2°38.681 5.782862 3.284332 33.237311  
2002-12-13 13:22:43 51°10.173 2°38.638 5.78156 3.284332 33.23816  
2002-12-13 13:23:43 51°10.134 2°38.625 5.773846 3.284964 33.248645  
2002-12-13 13:24:43 51°10.102 2°38.644 5.774998 3.284438 33.24698  
2002-12-13 13:25:43 51°10.097 2°38.681 5.784315 3.283911 33.240221  
2002-12-13 13:26:43 51°10.115 2°38.709 5.780909 3.284543 33.240523  
2002-12-13 13:27:43 51°10.142 2°38.724 5.823119 3.28528 33.249644  
2002-12-13 13:28:43 51°10.171 2°38.729 5.593555 3.280015 33.211756  
2002-12-13 13:29:43 51°10.197 2°38.728 5.480371 3.22968 32.858015  
2002-12-13 13:30:44 51°10.218 2°38.725 5.530879 3.225047 32.825207  
2002-12-13 13:31:43 51°10.235 2°38.719 5.499995 3.227784 32.845096  
2002-12-13 13:32:41 51°10.251 2°38.711 5.525598 3.21936 32.780493  
2002-12-13 13:33:43 51°10.266 2°38.7 5.521525 3.225468 32.818133  
2002-12-13 13:34:43 51°10.297 2°38.726 5.427405 3.215991 32.745014  
2002-12-13 13:35:43 51°10.324 2°38.767 5.333044 3.195458 32.595781  
2002-12-13 13:36:43 51°10.383 2°38.982 5.434104 3.190826 32.565307  
2002-12-13 13:37:43 51°10.45 2°39.3 5.412645 3.195037 32.588498  
2002-12-13 13:38:43 51°10.517 2°39.623 5.523084 3.206304 32.679528  
2002-12-13 13:39:42 51°10.579 2°39.943 5.747993 3.237367 32.918442  
2002-12-13 13:40:43 51°10.644 2°40.273 5.743082 3.275381 33.1733  
2002-12-13 13:41:43 51°10.71 2°40.597 5.772844 3.269168 33.139113  
2002-12-13 13:42:43 51°10.775 2°40.92 5.555062 3.263903 33.106207  
2002-12-13 13:43:43 51°10.829 2°41.246 5.436672 3.230944 32.920525  
2002-12-13 13:44:43 51°10.884 2°41.572 5.435162 3.217992 32.840325  
2002-12-13 13:45:43 51°10.942 2°41.897 5.374849 3.211359 32.78988  
2002-12-13 13:46:43 51°10.999 2°42.223 5.348377 3.205252 32.741955  
2002-12-13 13:47:42 51°11.055 2°42.542 5.18522 3.180297 32.569212  
2002-12-13 13:48:44 51°11.115 2°42.876 5.158568 3.147764 32.307834  
2002-12-13 13:49:42 51°11.171 2°43.19 6.896745 3.139025 32.235431  
2002-12-13 13:50:43 51°11.229 2°43.517 6.665904 3.13155 32.155511  
2002-12-13 13:51:43 51°11.287 2°43.84 6.293924 3.128813 32.121894  
2002-12-13 13:52:45 51°11.348 2°44.176 6.63468 3.120495 32.044955  
2002-12-13 13:53:46 51°11.407 2°44.505 6.400405 3.111652 31.959486  
2002-12-13 13:54:45 51°11.464 2°44.823 6.520275 3.108494 31.9211  
2002-12-13 13:55:46 51°11.521 2°45.151 6.214828 3.104072 31.871702  
2002-12-13 13:56:45 51°11.578 2°45.468 6.367413 3.094492 31.781974  
2002-12-13 13:57:45 51°11.656 2°45.782 6.927201 3.089649 31.73442  
2002-12-13 13:58:46 51°11.734 2°46.1 6.376295 3.083859 31.681884  
2002-12-13 13:59:45 51°11.81 2°46.408 6.620743 3.077859 31.624452  
2002-12-13 14:00:45 51°11.887 2°46.723 6.595035 3.074385 31.593236  
2002-12-13 14:01:45 51°11.961 2°47.036 6.057737 3.065963 31.523916  
2002-12-13 14:02:45 51°12.036 2°47.348 5.95877 3.059436 31.457955  
2002-12-13 14:03:45 51°12.121 2°47.654 6.61669 3.059857 31.436421  
2002-12-13 14:04:45 51°12.215 2°47.956 6.782119 3.05912 31.415732  
2002-12-13 14:05:45 51°12.312 2°48.258 6.756033 3.05512 31.368678  
2002-12-13 14:06:45 51°12.413 2°48.554 6.241884 3.056594 31.36492  
2002-12-13 14:07:45 51°12.513 2°48.851 6.22408 3.053541 31.33438  
2002-12-13 14:08:45 51°12.614 2°49.147 7.031941 3.051541 31.314963  
2002-12-13 14:09:45 51°12.714 2°49.443 6.421333 3.042383 31.251901  
2002-12-13 14:10:45 51°12.815 2°49.738 6.367959 3.030699 31.173078  
2002-12-13 14:11:45 51°12.915 2°50.033 6.2567 3.026804 31.136149  
2002-12-13 14:12:45 51°13.015 2°50.329 6.608533 3.021752 31.101539  
2002-12-13 14:13:45 51°13.115 2°50.625 6.481747 3.020805 31.083427  
2002-12-13 14:14:46 51°13.217 2°50.927 6.584601 3.015331 31.027705  
2002-12-13 14:15:45 51°13.317 2°51.218 6.32179 3.007226 30.947742  
2002-12-13 14:16:45 51°13.418 2°51.513 6.328494 3.001858 30.879421  
2002-12-13 14:17:46 51°13.521 2°51.813 6.815686 2.998384 30.839949  
2002-12-13 14:18:45 51°13.618 2°52.103 6.631715 2.994806 30.806561  
2002-12-13 14:19:46 51°13.718 2°52.401 6.718783 2.989754 30.765301  
2002-12-13 14:20:45 51°13.815 2°52.69 6.497398 2.989017 30.762579  
2002-12-13 14:21:45 51°13.914 2°52.985 6.9602 2.988911 30.75573  
2002-12-13 14:22:45 51°14.012 2°53.28 6.916575 2.992806 30.782222  
2002-12-13 14:23:45 51°14.108 2°53.574 6.56432 3.000173 30.840059  
2002-12-13 14:24:45 51°14.205 2°53.862 6.023418 3.000594 30.840799  
2002-12-13 14:25:45 51°14.299 2°54.15 6.276234 2.99449 30.795701  
2002-12-13 14:26:45 51°14.37 2°54.444 6.199057 2.991122 30.784087  
2002-12-13 14:27:45 51°14.401 2°54.75 6.213236 2.980807 30.707967  
2002-12-13 14:28:45 51°14.364 2°55.053 6.957988 2.949759 30.416528  
2002-12-13 14:29:46 51°14.267 2°55.267 6.243227 2.899771 29.973692  
2002-12-13 14:30:45 51°14.176 2°55.371 6.04482 2.684192 27.676781  
2002-12-13 14:31:45 51°14.09 2°55.436 6.157795 2.644538 27.260013  
2002-12-13 14:32:45 51°14.007 2°55.497 5.806098 2.557669 26.331495  
2002-12-13 14:33:45 51°13.924 2°55.56 6.142806 2.457887 25.261943  
2002-12-13 14:34:45 51°13.847 2°55.62 5.564411 2.478493 25.495102  
2002-12-13 14:35:45 51°13.783 2°55.68 6.230397 2.390607 24.548003  
2002-12-13 14:36:45 51°13.738 2°55.758 5.747592 2.094295 21.379512  
2002-12-13 14:37:45 51°13.701 2°55.842 5.326335 1.919457 19.529382  
2002-12-13 14:38:45 51°13.664 2°55.928 5.619823 1.965442 20.050913  
2002-12-13 14:39:45 51°13.629 2°56.015 5.624191 2.046613 20.920312  
2002-12-13 14:40:45 51°13.598 2°56.079 3.842141 2.040837 20.855872  
2002-12-13 14:41:45 51°13.591 2°56.089 3.829845 1.991377 20.345192  
2002-12-13 14:42:45 51°13.582 2°56.111 4.231214 0.035139 0.280654  
2002-12-13 14:43:45 51°13.585 2°56.103 4.304636 0.029526 0.233832  
2002-12-13 14:44:45 51°13.589 2°56.118 4.454393 0.028799 0.227309  
2002-12-13 14:45:45 51°13.59 2°56.123 4.447436 0.027759 0.218251  
2002-12-13 14:46:45 51°13.589 2°56.131 4.608488 0.026512 0.2076